Annalisa P — V2QC8 — position and weather

sailwx.info

Track history (hours):
 
Tides and Currents Weather Stations Pressure Air Temp Water Temp Dewpoint Dewpoint Depression Visibility Wind Speed Wind Dir Waves Ship Positions

Annalisa P

Last reported at 2018-Jan-19 03:24 UTC. Time now 2018-Jan-21 17:00 UTC.
Position N 36°14' E 027°01'.

Length 166 m; draft 8.4 m.

Type: Cargo ship. MMSI: 305313000.

Date/timePositionNaut miles runAvg speedWind from/ knotsBaromVisibWave heightAir tempDewpointWater temp
2018-Jan-19 03:24N 36°14' E 027°01'1015.6
2018-Jan-19 02:46N 36°22' E 026°52'615.4
2018-Jan-19 02:23N 36°26' E 026°47'615.2
2018-Jan-19 02:00N 36°30' E 026°43'714.9
2018-Jan-19 01:30N 36°36' E 026°37'715.1
2018-Jan-19 01:01N 36°42' E 026°30'714.8
2018-Jan-19 00:31N 36°47' E 026°24'714.7
2018-Jan-19 00:00N 36°52' E 026°18'814.6
2018-Jan-18 23:29N 36°58' E 026°12'714.2
2018-Jan-18 23:00N 37°05' E 026°08'714.9
2018-Jan-18 22:31N 37°11' E 026°04'815.0
2018-Jan-18 22:01N 37°18' E 026°00'816.2
2018-Jan-18 21:30N 37°25' E 025°56'815.7
2018-Jan-18 21:00N 37°32' E 025°52'815.3
2018-Jan-18 20:31N 37°40' E 025°48'714.9
2018-Jan-18 20:01N 37°47' E 025°45'714.9
2018-Jan-18 19:30N 37°54' E 025°45'815.0
2018-Jan-18 18:59N 38°02' E 025°45'22412.3
2018-Jan-18 00:42N 40°55' E 028°50'6 7.6
2018-Jan-17 23:54N 40°58' E 028°57'  
2018-Jan-12 14:59N 44°21' E 037°45'611.6
2018-Jan-12 14:27N 44°23' E 037°37'410.2
2018-Jan-12 14:00N 44°25' E 037°32'6 8.8
2018-Jan-12 13:22N 44°22' E 037°24'3 8.9
2018-Jan-12 12:59N 44°21' E 037°20'4 8.8
2018-Jan-12 12:29N 44°19' E 037°15'5 8.9
2018-Jan-12 11:56N 44°17' E 037°09'  
2018-Jan-09 15:07N 38°01' E 025°45'216.9
2018-Jan-09 15:00N 37°59' E 025°45'1517.0
2018-Jan-09 14:07N 37°44' E 025°48'617.0
2018-Jan-09 13:46N 37°39' E 025°50'416.9
2018-Jan-09 13:30N 37°34' E 025°51'816.2
2018-Jan-09 13:00N 37°27' E 025°55'815.9
2018-Jan-09 12:31N 37°20' E 025°59'816.1
2018-Jan-09 12:01N 37°12' E 026°04'816.2
2018-Jan-09 11:30N 37°05' E 026°08'816.3
2018-Jan-09 11:01N 36°58' E 026°13'816.1
2018-Jan-09 10:30N 36°52' E 026°19'815.6
2018-Jan-09 10:00N 36°46' E 026°25'816.0
2018-Jan-09 09:30N 36°40' E 026°32'816.2
2018-Jan-09 09:01N 36°34' E 026°38'916.6
2018-Jan-09 08:27N 36°27' E 026°46'916.7
2018-Jan-09 07:55N 36°20' E 026°53'917.1
2018-Jan-09 07:23N 36°13' E 027°01'616.2
2018-Jan-09 07:00N 36°08' E 027°06'916.1
2018-Jan-09 06:26N 36°01' E 027°13'716.1
2018-Jan-09 05:59N 35°56' E 027°19'816.1
2018-Jan-09 05:30N 35°50' E 027°25'816.0
2018-Jan-09 05:00N 35°44' E 027°32'816.1
2018-Jan-09 04:30N 35°38' E 027°38'816.2
2018-Jan-09 04:01N 35°32' E 027°45'816.3
2018-Jan-09 03:31N 35°26' E 027°51'  
Track history (hours):
 
Tides and Currents Weather Stations Pressure Air Temp Water Temp Dewpoint Dewpoint Depression Visibility Wind Speed Wind Dir Waves Ship Positions

Annalisa P

Last reported at 2018-Jan-19 03:24 UTC. Time now 2018-Jan-21 17:00 UTC.
Position N 36°14' E 027°01'.

Length 166 m; draft 8.4 m.

Type: Cargo ship. MMSI: 305313000.

Date/timePositionNaut miles runAvg speedWind from/ knotsBaromVisibWave heightAir tempDewpointWater temp
2018-Jan-19 03:24N 36°14' E 027°01'1015.6
2018-Jan-19 02:46N 36°22' E 026°52'615.4
2018-Jan-19 02:23N 36°26' E 026°47'615.2
2018-Jan-19 02:00N 36°30' E 026°43'714.9
2018-Jan-19 01:30N 36°36' E 026°37'715.1
2018-Jan-19 01:01N 36°42' E 026°30'714.8
2018-Jan-19 00:31N 36°47' E 026°24'714.7
2018-Jan-19 00:00N 36°52' E 026°18'814.6
2018-Jan-18 23:29N 36°58' E 026°12'714.2
2018-Jan-18 23:00N 37°05' E 026°08'714.9
2018-Jan-18 22:31N 37°11' E 026°04'815.0
2018-Jan-18 22:01N 37°18' E 026°00'816.2
2018-Jan-18 21:30N 37°25' E 025°56'815.7
2018-Jan-18 21:00N 37°32' E 025°52'815.3
2018-Jan-18 20:31N 37°40' E 025°48'714.9
2018-Jan-18 20:01N 37°47' E 025°45'714.9
2018-Jan-18 19:30N 37°54' E 025°45'815.0
2018-Jan-18 18:59N 38°02' E 025°45'22412.3
2018-Jan-18 00:42N 40°55' E 028°50'6 7.6
2018-Jan-17 23:54N 40°58' E 028°57'  
2018-Jan-12 14:59N 44°21' E 037°45'611.6
2018-Jan-12 14:27N 44°23' E 037°37'410.2
2018-Jan-12 14:00N 44°25' E 037°32'6 8.8
2018-Jan-12 13:22N 44°22' E 037°24'3 8.9
2018-Jan-12 12:59N 44°21' E 037°20'4 8.8
2018-Jan-12 12:29N 44°19' E 037°15'5 8.9
2018-Jan-12 11:56N 44°17' E 037°09'  
2018-Jan-09 15:07N 38°01' E 025°45'216.9
2018-Jan-09 15:00N 37°59' E 025°45'1517.0
2018-Jan-09 14:07N 37°44' E 025°48'617.0
2018-Jan-09 13:46N 37°39' E 025°50'416.9
2018-Jan-09 13:30N 37°34' E 025°51'816.2
2018-Jan-09 13:00N 37°27' E 025°55'815.9
2018-Jan-09 12:31N 37°20' E 025°59'816.1
2018-Jan-09 12:01N 37°12' E 026°04'816.2
2018-Jan-09 11:30N 37°05' E 026°08'816.3
2018-Jan-09 11:01N 36°58' E 026°13'816.1
2018-Jan-09 10:30N 36°52' E 026°19'815.6
2018-Jan-09 10:00N 36°46' E 026°25'816.0
2018-Jan-09 09:30N 36°40' E 026°32'816.2
2018-Jan-09 09:01N 36°34' E 026°38'916.6
2018-Jan-09 08:27N 36°27' E 026°46'916.7
2018-Jan-09 07:55N 36°20' E 026°53'917.1
2018-Jan-09 07:23N 36°13' E 027°01'616.2
2018-Jan-09 07:00N 36°08' E 027°06'916.1
2018-Jan-09 06:26N 36°01' E 027°13'716.1
2018-Jan-09 05:59N 35°56' E 027°19'816.1
2018-Jan-09 05:30N 35°50' E 027°25'816.0
2018-Jan-09 05:00N 35°44' E 027°32'816.1
2018-Jan-09 04:30N 35°38' E 027°38'816.2
2018-Jan-09 04:01N 35°32' E 027°45'816.3
2018-Jan-09 03:31N 35°26' E 027°51'  

Dump ship's entire track history